createdAt,value
2022-10-13T00:00:53.428Z,99290.13
2022-10-13T00:03:20.021Z,99288.34
2022-10-13T00:05:48.744Z,99283.06
2022-10-13T00:08:19.688Z,99287.47
2022-10-13T00:10:48.086Z,99278.69
2022-10-13T00:13:16.109Z,99291.03
2022-10-13T00:15:44.829Z,99289.28
2022-10-13T00:18:11.514Z,99284.00
2022-10-13T00:20:51.612Z,99292.81
2022-10-13T00:23:18.451Z,99284.88
2022-10-13T00:25:47.490Z,99284.94
2022-10-13T00:28:18.915Z,99283.16
2022-10-13T00:30:46.626Z,99282.34
2022-10-13T00:33:13.786Z,99277.94
2022-10-13T00:35:44.706Z,99285.84
2022-10-13T00:38:12.098Z,99276.19
2022-10-13T00:40:50.074Z,99278.84
2022-10-13T00:43:19.163Z,99269.16
2022-10-13T00:45:46.078Z,99265.59
2022-10-13T00:48:12.936Z,99252.38
2022-10-13T00:50:41.794Z,99250.63
2022-10-13T00:53:10.680Z,99249.69
2022-10-13T00:55:39.885Z,99250.63
2022-10-13T00:58:10.329Z,99243.59
2022-10-13T01:00:36.941Z,99242.69
2022-10-13T01:03:04.049Z,99248.88
2022-10-13T01:05:31.238Z,99240.97
2022-10-13T01:07:59.463Z,99235.66
2022-10-13T01:10:39.876Z,99233.91
2022-10-13T01:13:22.552Z,99237.44
2022-10-13T01:16:12.211Z,99233.03
2022-10-13T01:19:21.917Z,99240.06
2022-10-13T01:22:06.733Z,99243.50
2022-10-13T01:24:45.964Z,99243.50
2022-10-13T01:27:33.469Z,99241.81
2022-10-13T01:30:18.111Z,99240.03
2022-10-13T01:33:22.244Z,99245.28
2022-10-13T01:35:58.136Z,99245.28
2022-10-13T01:38:33.365Z,99251.44
2022-10-13T01:41:21.135Z,99250.56
2022-10-13T01:43:55.726Z,99247.91
2022-10-13T01:46:32.408Z,99237.34
2022-10-13T01:49:01.918Z,99233.88
2022-10-13T01:51:30.642Z,99233.00
2022-10-13T01:53:57.536Z,99221.53
2022-10-13T01:56:24.257Z,99232.94
2022-10-13T01:58:53.234Z,99220.59
2022-10-13T02:01:22.376Z,99220.59
2022-10-13T02:03:55.655Z,99225.06
2022-10-13T02:06:30.429Z,99223.31
2022-10-13T02:09:05.011Z,99211.88
2022-10-13T02:11:31.699Z,99218.06
2022-10-13T02:14:08.753Z,99207.50
2022-10-13T02:16:40.163Z,99209.22
2022-10-13T02:19:09.301Z,99205.69
2022-10-13T02:21:36.144Z,99203.91
2022-10-13T02:24:04.305Z,99208.25
2022-10-13T02:26:32.671Z,99199.44
2022-10-13T02:28:59.855Z,99202.03
2022-10-13T02:31:26.530Z,99202.88
2022-10-13T02:33:52.995Z,99201.19
2022-10-13T02:36:19.512Z,99201.19
2022-10-13T02:38:46.001Z,99195.84
2022-10-13T02:41:12.476Z,99197.59
2022-10-13T02:43:38.970Z,99191.44
2022-10-13T02:46:05.655Z,99193.25
2022-10-13T02:48:32.295Z,99190.63
2022-10-13T02:50:58.764Z,99195.91
2022-10-13T02:53:25.308Z,99188.84
2022-10-13T02:55:51.765Z,99188.84
2022-10-13T02:58:18.249Z,99187.91
2022-10-13T03:00:44.819Z,99189.75
2022-10-13T03:03:11.661Z,99175.66
2022-10-13T03:05:38.197Z,99173.00
2022-10-13T03:08:05.007Z,99175.66
2022-10-13T03:10:32.065Z,99175.66
2022-10-13T03:12:58.850Z,99179.22
2022-10-13T03:15:25.448Z,99179.22
2022-10-13T03:17:51.918Z,99181.00
2022-10-13T03:20:18.457Z,99181.88
2022-10-13T03:22:49.572Z,99178.34
2022-10-13T03:25:16.562Z,99175.72
2022-10-13T03:27:43.059Z,99174.81
2022-10-13T03:30:10.593Z,99171.31
2022-10-13T03:32:37.098Z,99173.06
2022-10-13T03:35:03.905Z,99176.59
2022-10-13T03:37:30.753Z,99177.50
2022-10-13T03:39:57.259Z,99172.19
2022-10-13T03:42:23.900Z,99179.34
2022-10-13T03:44:55.227Z,99176.72
2022-10-13T03:47:22.766Z,99175.94
2022-10-13T03:49:49.276Z,99177.75
2022-10-13T03:52:15.735Z,99181.28
2022-10-13T03:54:42.238Z,99173.34
2022-10-13T03:57:08.733Z,99180.44
2022-10-13T03:59:36.910Z,99178.63
2022-10-13T04:02:03.893Z,99173.34
2022-10-13T04:04:30.495Z,99178.63
2022-10-13T04:06:56.959Z,99178.63
2022-10-13T04:09:23.492Z,99177.69
2022-10-13T04:11:53.364Z,99170.66
2022-10-13T04:14:20.296Z,99173.34
2022-10-13T04:16:47.348Z,99177.75
2022-10-13T04:19:15.134Z,99178.63
2022-10-13T04:21:43.037Z,99177.75
2022-10-13T04:24:12.554Z,99169.84
2022-10-13T04:26:39.718Z,99171.63
2022-10-13T04:29:07.392Z,99170.78
2022-10-13T04:31:35.187Z,99162.84
2022-10-13T04:34:01.689Z,99167.25
2022-10-13T04:36:28.251Z,99161.94
2022-10-13T04:38:55.302Z,99156.69
2022-10-13T04:41:22.392Z,99162.88
2022-10-13T04:43:50.201Z,99156.69
2022-10-13T04:46:22.836Z,99149.63
2022-10-13T04:48:50.018Z,99155.78
2022-10-13T04:51:22.265Z,99157.53
2022-10-13T04:53:48.976Z,99161.97
2022-10-13T04:56:17.468Z,99164.63
2022-10-13T04:58:45.799Z,99155.81
2022-10-13T05:01:21.892Z,99152.31
2022-10-13T05:03:57.605Z,99155.81
2022-10-13T05:06:27.332Z,99153.16
2022-10-13T05:08:54.564Z,99147.91
2022-10-13T05:11:21.124Z,99152.31
2022-10-13T05:13:48.835Z,99144.34
2022-10-13T05:16:17.449Z,99143.47
2022-10-13T05:18:44.441Z,99145.22
2022-10-13T05:21:19.609Z,99145.22
2022-10-13T05:23:46.792Z,99139.91
2022-10-13T05:26:15.847Z,99131.97
2022-10-13T05:28:42.920Z,99133.75
2022-10-13T05:31:13.817Z,99133.75
2022-10-13T05:33:40.983Z,99137.28
2022-10-13T05:36:10.422Z,99137.25
2022-10-13T05:38:37.383Z,99130.19
2022-10-13T05:41:08.809Z,99130.22
2022-10-13T05:43:37.281Z,99125.78
2022-10-13T05:46:04.440Z,99124.91
2022-10-13T05:48:31.282Z,99124.03
2022-10-13T05:51:00.041Z,99133.75
2022-10-13T05:53:29.952Z,99134.63
2022-10-13T05:56:06.107Z,99132.81
2022-10-13T05:58:36.672Z,99133.69
2022-10-13T06:01:07.074Z,99131.94
2022-10-13T06:03:34.487Z,99125.78
2022-10-13T06:06:01.083Z,99124.00
2022-10-13T06:08:27.966Z,99124.00
2022-10-13T06:10:54.451Z,99122.25
2022-10-13T06:13:20.926Z,99116.94
2022-10-13T06:15:47.410Z,99112.53
2022-10-13T06:18:13.848Z,99112.53
2022-10-13T06:20:40.437Z,99115.19
2022-10-13T06:23:06.886Z,99116.97
2022-10-13T06:25:33.428Z,99115.19
2022-10-13T06:28:02.535Z,99104.63
2022-10-13T06:30:29.240Z,99106.38
2022-10-13T06:32:56.197Z,99105.50
2022-10-13T06:35:23.537Z,99103.72
2022-10-13T06:37:50.312Z,99102.88
2022-10-13T06:40:16.998Z,99107.28
2022-10-13T06:42:49.640Z,99106.41
2022-10-13T06:45:16.144Z,99114.34
2022-10-13T06:47:42.588Z,99114.34
2022-10-13T06:50:09.520Z,99104.63
2022-10-13T06:52:36.079Z,99109.03
2022-10-13T06:55:02.554Z,99115.25
2022-10-13T06:57:29.020Z,99112.59
2022-10-13T06:59:55.535Z,99113.47
2022-10-13T07:02:22.335Z,99108.19
2022-10-13T07:04:49.158Z,99111.72
2022-10-13T07:07:16.267Z,99106.41
2022-10-13T07:09:43.010Z,99107.28
2022-10-13T07:12:09.515Z,99107.28
2022-10-13T07:14:38.183Z,99109.91
2022-10-13T07:17:07.081Z,99108.19
2022-10-13T07:19:33.559Z,99101.09
2022-10-13T07:22:00.090Z,99109.03
2022-10-13T07:24:26.724Z,99117.00
2022-10-13T07:26:53.212Z,99113.44
2022-10-13T07:29:19.765Z,99116.09
2022-10-13T07:31:46.462Z,99102.84
2022-10-13T07:34:15.201Z,99109.91
2022-10-13T07:36:42.214Z,99115.19
2022-10-13T07:39:09.615Z,99122.28
2022-10-13T07:41:36.847Z,99120.47
2022-10-13T07:44:03.384Z,99117.81
2022-10-13T07:46:30.036Z,99109.84
2022-10-13T07:48:56.533Z,99108.97
2022-10-13T07:51:23.386Z,99110.75
2022-10-13T07:53:50.270Z,99109.88
2022-10-13T07:56:16.767Z,99116.94
2022-10-13T07:58:45.820Z,99118.69
2022-10-13T08:01:13.584Z,99116.91
2022-10-13T08:03:43.018Z,99116.03
2022-10-13T08:06:13.608Z,99119.53
2022-10-13T08:08:40.744Z,99119.56
2022-10-13T08:11:13.473Z,99128.34
2022-10-13T08:13:42.914Z,99119.47
2022-10-13T08:16:12.147Z,99113.28
2022-10-13T08:18:38.688Z,99114.13
2022-10-13T08:21:33.161Z,99113.19
2022-10-13T08:23:51.790Z,99114.03
2022-10-13T08:26:22.238Z,99102.44
2022-10-13T08:29:09.478Z,99093.56
2022-10-13T08:31:35.895Z,99088.22
2022-10-13T08:34:02.581Z,99102.28
2022-10-13T08:36:29.123Z,99096.06
2022-10-13T08:38:55.581Z,99088.97
2022-10-13T08:41:30.124Z,99110.19
2022-10-13T08:47:04.019Z,99107.38
2022-10-13T08:49:31.065Z,99102.03
2022-10-13T08:51:59.000Z,99098.41
2022-10-13T08:54:26.387Z,99079.75
2022-10-13T08:56:53.298Z,99055.81
2022-10-13T08:59:21.693Z,99061.97
2022-10-13T09:01:52.735Z,99075.22
2022-10-13T09:04:36.231Z,99057.44
2022-10-13T09:07:15.903Z,99046.66
2022-10-13T09:09:42.932Z,99052.69
2022-10-13T09:12:13.109Z,99050.78
2022-10-13T09:14:41.324Z,99052.28
2022-10-13T09:17:21.513Z,99052.78
2022-10-13T09:20:22.122Z,99051.47
2022-10-13T09:23:17.813Z,99051.47
2022-10-13T09:25:50.917Z,99049.50
2022-10-13T09:28:25.733Z,99046.25
2022-10-13T09:31:14.128Z,99056.09
2022-10-13T09:33:40.770Z,99055.38
2022-10-13T09:36:12.674Z,99061.72
2022-10-13T09:38:41.515Z,99031.41
2022-10-13T09:41:19.597Z,99036.44
2022-10-13T09:43:46.035Z,99046.06
2022-10-13T09:46:22.010Z,99043.28
2022-10-13T09:48:55.807Z,99048.38
2022-10-13T09:51:34.461Z,99062.03
2022-10-13T09:54:01.114Z,99062.72
2022-10-13T09:56:42.377Z,99072.69
2022-10-13T09:59:31.132Z,99050.50
2022-10-13T10:01:58.627Z,99076.28
2022-10-13T10:04:38.259Z,99082.13
2022-10-13T10:07:15.799Z,99081.84
2022-10-13T10:09:49.069Z,99080.53
2022-10-13T10:12:25.467Z,99068.41
2022-10-13T10:14:54.137Z,99061.59
2022-10-13T10:17:59.236Z,99052.25
2022-10-13T10:20:37.513Z,99050.94
2022-10-13T10:23:06.759Z,99061.13
2022-10-13T10:25:49.164Z,99062.63
2022-10-13T10:28:37.046Z,99055.34
2022-10-13T10:31:15.430Z,99042.72
2022-10-13T10:33:45.125Z,99053.13
2022-10-13T10:36:17.227Z,99056.63
2022-10-13T10:38:46.111Z,99057.44
2022-10-13T10:41:18.764Z,99051.06
2022-10-13T10:44:10.971Z,99051.88
2022-10-13T10:46:45.716Z,99056.19
2022-10-13T10:49:31.617Z,99049.03
2022-10-13T10:52:01.518Z,99045.59
2022-10-13T10:55:02.673Z,99041.72
2022-10-13T10:57:39.232Z,99031.81
2022-10-13T11:00:13.538Z,99031.69
2022-10-13T11:02:42.802Z,99022.59
2022-10-13T11:05:09.489Z,99029.78
2022-10-13T11:07:38.942Z,99027.28
2022-10-13T11:10:16.427Z,99031.75
2022-10-13T11:12:52.175Z,99031.41
2022-10-13T11:15:24.142Z,99032.44
2022-10-13T11:17:50.680Z,99026.22
2022-10-13T11:20:17.170Z,99032.63
2022-10-13T11:23:03.571Z,99019.13
2022-10-13T11:25:39.897Z,99016.50
2022-10-13T11:28:21.821Z,99011.03
2022-10-13T11:31:24.740Z,99013.19
2022-10-13T11:33:54.790Z,99003.88
2022-10-13T11:36:50.065Z,98990.16
2022-10-13T11:39:28.683Z,98998.88
2022-10-13T11:42:11.925Z,98998.84
2022-10-13T11:44:58.585Z,99001.34
2022-10-13T11:47:46.697Z,99001.53
2022-10-13T11:50:37.939Z,98987.94
2022-10-13T11:53:14.281Z,98990.03
2022-10-13T11:55:50.200Z,98987.28
2022-10-13T11:58:26.842Z,98987.31
2022-10-13T12:01:11.930Z,98985.66
2022-10-13T12:03:41.738Z,98979.84
2022-10-13T12:06:32.225Z,98980.97
2022-10-13T12:09:02.263Z,98982.25
2022-10-13T12:11:36.231Z,98980.81
2022-10-13T12:14:06.027Z,98979.22
2022-10-13T12:16:32.569Z,98969.59
2022-10-13T12:19:18.731Z,98963.31
2022-10-13T12:21:56.229Z,98975.53
2022-10-13T12:24:25.066Z,98958.63
2022-10-13T12:26:52.370Z,98953.47
2022-10-13T12:29:24.101Z,98953.59
2022-10-13T12:31:51.788Z,98945.59
2022-10-13T12:34:18.231Z,98943.75
2022-10-13T12:39:25.174Z,98945.09
2022-10-13T12:41:55.022Z,98941.34
2022-10-13T12:44:26.075Z,98941.22
2022-10-13T12:47:02.249Z,98940.03
2022-10-13T12:49:31.602Z,98934.34
2022-10-13T12:51:58.049Z,98932.38
2022-10-13T12:54:28.035Z,98930.59
2022-10-13T12:56:58.508Z,98920.81
2022-10-13T12:59:28.343Z,98930.44
2022-10-13T13:01:59.030Z,98916.31
2022-10-13T13:04:32.183Z,98924.75
2022-10-13T13:07:04.006Z,98926.00
2022-10-13T13:09:31.226Z,98920.94
2022-10-13T13:12:11.122Z,98934.66
2022-10-13T13:14:50.115Z,98939.38
2022-10-13T13:17:27.636Z,98927.13
2022-10-13T13:20:20.745Z,98928.09
2022-10-13T13:22:50.761Z,98926.34
2022-10-13T13:25:17.620Z,98937.00
2022-10-13T13:27:44.220Z,98935.25
2022-10-13T13:30:17.650Z,98930.00
2022-10-13T13:32:44.265Z,98926.41
2022-10-13T13:35:11.047Z,98922.81
2022-10-13T13:37:41.964Z,98925.47
2022-10-13T13:40:16.293Z,98917.41
2022-10-13T13:42:42.884Z,98915.66
2022-10-13T13:45:13.524Z,98917.56
2022-10-13T13:47:40.073Z,98913.09
2022-10-13T13:50:19.083Z,98915.81
2022-10-13T13:52:46.174Z,98916.72
2022-10-13T13:55:12.985Z,98922.03
2022-10-13T13:57:39.798Z,98923.00
2022-10-13T14:00:07.605Z,98917.69
2022-10-13T14:02:34.203Z,98922.09
2022-10-13T14:05:00.758Z,98917.59
2022-10-13T14:07:30.975Z,98917.56
2022-10-13T14:10:00.961Z,98912.28
2022-10-13T14:12:32.540Z,98916.75
2022-10-13T14:14:59.136Z,98908.84
2022-10-13T14:17:28.211Z,98918.59
2022-10-13T14:19:57.923Z,98912.41
2022-10-13T14:22:24.909Z,98916.06
2022-10-13T14:24:51.592Z,98916.97
2022-10-13T14:27:18.411Z,98918.81
2022-10-13T14:29:45.156Z,98915.38
2022-10-13T14:32:11.968Z,98917.16
2022-10-13T14:34:38.574Z,98910.97
2022-10-13T14:37:05.160Z,98905.66
2022-10-13T14:39:35.790Z,98908.34
2022-10-13T14:42:02.615Z,98909.25
2022-10-13T14:44:31.334Z,98911.13
2022-10-13T14:46:59.046Z,98908.50
2022-10-13T14:49:26.741Z,98907.72
2022-10-13T14:51:53.628Z,98906.03
2022-10-13T14:54:23.476Z,98912.28
2022-10-13T14:56:51.306Z,98905.16
2022-10-13T14:59:18.746Z,98902.47
2022-10-13T15:01:48.158Z,98911.41
2022-10-13T15:04:14.955Z,98912.34
2022-10-13T15:06:41.588Z,98912.44
2022-10-13T15:09:10.610Z,98906.25
2022-10-13T15:11:41.707Z,98909.84
2022-10-13T15:14:10.098Z,98907.19
2022-10-13T15:16:48.426Z,98908.13
2022-10-13T15:19:17.938Z,98902.84
2022-10-13T15:21:47.211Z,98902.03
2022-10-13T15:24:14.812Z,98910.06
2022-10-13T15:26:41.965Z,98904.72
2022-10-13T15:29:11.923Z,98898.59
2022-10-13T15:31:41.776Z,98899.50
2022-10-13T15:34:08.832Z,98897.78
2022-10-13T15:36:36.684Z,98888.94
2022-10-13T15:39:05.346Z,98891.63
2022-10-13T15:41:34.222Z,98889.03
2022-10-13T15:44:02.961Z,98889.06
2022-10-13T15:46:31.620Z,98894.47
2022-10-13T15:49:00.164Z,98889.16
2022-10-13T15:51:27.747Z,98885.66
2022-10-13T15:53:55.304Z,98877.69
2022-10-13T15:56:26.699Z,98875.97
2022-10-13T15:58:54.509Z,98876.94
2022-10-13T16:01:24.099Z,98876.97
2022-10-13T16:03:57.643Z,98866.31
2022-10-13T16:06:25.731Z,98873.41
2022-10-13T16:08:55.675Z,98868.06
2022-10-13T16:11:27.950Z,98862.81
2022-10-13T16:13:56.925Z,98868.19
2022-10-13T16:16:23.604Z,98867.38
2022-10-13T16:19:01.138Z,98870.03
2022-10-13T16:21:36.334Z,98866.53
2022-10-13T16:24:10.595Z,98871.91
2022-10-13T16:26:47.851Z,98859.50
2022-10-13T16:29:15.803Z,98863.13
2022-10-13T16:31:43.955Z,98869.31
2022-10-13T16:34:18.611Z,98872.03
2022-10-13T16:36:45.354Z,98880.06
2022-10-13T16:39:12.475Z,98866.81
2022-10-13T16:41:46.909Z,98874.81
2022-10-13T16:44:13.865Z,98871.28
2022-10-13T16:46:46.660Z,98868.66
2022-10-13T16:49:15.710Z,98869.56
2022-10-13T16:51:42.641Z,98860.72
2022-10-13T16:54:10.803Z,98859.88
2022-10-13T16:56:39.561Z,98859.88
2022-10-13T16:59:12.957Z,98866.13
2022-10-13T17:02:02.255Z,98867.03
2022-10-13T17:04:30.991Z,98855.50
2022-10-13T17:06:59.258Z,98864.38
2022-10-13T17:09:27.840Z,98864.38
2022-10-13T17:11:57.487Z,98868.81
2022-10-13T17:14:28.336Z,98863.50
2022-10-13T17:16:57.755Z,98869.72
2022-10-13T17:19:28.383Z,98854.66
2022-10-13T17:22:00.059Z,98860.84
2022-10-13T17:24:30.899Z,98851.19
2022-10-13T17:27:02.479Z,98862.66
2022-10-13T17:29:33.043Z,98860.00
2022-10-13T17:32:02.840Z,98861.81
2022-10-13T17:34:44.094Z,98859.13
2022-10-13T17:37:11.965Z,98870.69
2022-10-13T17:39:42.665Z,98857.38
2022-10-13T17:42:11.197Z,98861.78
2022-10-13T17:44:39.420Z,98864.44
2022-10-13T17:47:08.302Z,98862.69
2022-10-13T17:49:39.351Z,98865.38
2022-10-13T17:52:11.212Z,98860.06
2022-10-13T17:54:40.912Z,98860.09
2022-10-13T17:57:11.686Z,98854.78
2022-10-13T17:59:42.766Z,98859.25
2022-10-13T18:02:25.080Z,98855.69
2022-10-13T18:04:53.530Z,98848.53
2022-10-13T18:07:26.200Z,98859.25
2022-10-13T18:09:54.735Z,98853.06
2022-10-13T18:12:30.305Z,98841.56
2022-10-13T18:15:11.527Z,98846.03
2022-10-13T18:17:50.048Z,98849.59
2022-10-13T18:20:20.544Z,98841.69
2022-10-13T18:22:50.027Z,98843.47
2022-10-13T18:30:42.604Z,98848.94
2022-10-13T18:33:11.564Z,98848.97
2022-10-13T18:35:47.247Z,98836.53
2022-10-13T18:38:22.489Z,98850.72
2022-10-13T18:40:53.515Z,98847.19
2022-10-13T18:43:26.097Z,98858.66
2022-10-13T18:46:03.239Z,98856.03
2022-10-13T18:48:51.705Z,98855.16
2022-10-13T18:51:25.400Z,98844.53
2022-10-13T18:53:53.411Z,98847.16
2022-10-13T18:56:37.142Z,98847.13
2022-10-13T18:59:07.567Z,98846.22
2022-10-13T19:01:47.180Z,98848.84
2022-10-13T19:04:17.169Z,98844.44
2022-10-13T19:06:46.803Z,98850.66
2022-10-13T19:09:29.582Z,98847.09
2022-10-13T19:12:02.357Z,98852.44
2022-10-13T19:14:31.815Z,98854.25
2022-10-13T19:17:02.162Z,98848.91
2022-10-13T19:19:31.463Z,98852.50
2022-10-13T19:22:01.253Z,98846.28
2022-10-13T19:25:01.483Z,98851.66
2022-10-13T19:27:39.478Z,98852.56
2022-10-13T19:30:09.171Z,98859.75
2022-10-13T19:32:41.393Z,98861.56
2022-10-13T19:35:08.988Z,98856.28
2022-10-13T19:37:37.839Z,98863.34
2022-10-13T19:40:10.194Z,98863.34
2022-10-13T19:42:41.245Z,98858.03
2022-10-13T19:45:12.238Z,98864.28
2022-10-13T19:47:40.672Z,98860.72
2022-10-13T19:50:17.129Z,98859.84
2022-10-13T19:52:49.460Z,98856.31
2022-10-13T19:55:25.124Z,98855.44
2022-10-13T19:58:00.119Z,98853.69
2022-10-13T20:00:36.115Z,98857.25
2022-10-13T20:03:15.976Z,98852.84
2022-10-13T20:05:44.288Z,98848.41
2022-10-13T20:08:18.452Z,98844.00
2022-10-13T20:10:47.350Z,98837.81
2022-10-13T20:13:17.572Z,98842.19
2022-10-13T20:15:44.297Z,98855.47
2022-10-13T20:18:15.371Z,98850.16
2022-10-13T20:20:50.610Z,98854.56
2022-10-13T20:23:23.064Z,98857.22
2022-10-13T20:25:57.887Z,98856.31
2022-10-13T20:28:30.192Z,98861.66
2022-10-13T20:30:58.568Z,98861.69
2022-10-13T20:33:25.494Z,98853.72
2022-10-13T20:35:58.822Z,98854.63
2022-10-13T20:38:27.018Z,98858.19
2022-10-13T20:40:56.168Z,98862.63
2022-10-13T20:43:25.846Z,98861.75
2022-10-13T20:46:05.750Z,98863.50
2022-10-13T20:49:05.546Z,98872.31
2022-10-13T20:51:29.760Z,98869.66
2022-10-13T20:53:56.886Z,98864.34
2022-10-13T20:56:30.537Z,98866.19
2022-10-13T20:59:02.610Z,98866.19
2022-10-13T21:01:31.491Z,98861.78
2022-10-13T21:03:59.980Z,98857.41
2022-10-13T21:06:27.348Z,98865.38
2022-10-13T21:08:57.604Z,98861.84
2022-10-13T21:11:27.259Z,98866.34
2022-10-13T21:14:01.072Z,98869.00
2022-10-13T21:16:32.027Z,98870.78
2022-10-13T21:19:04.030Z,98874.31
2022-10-13T21:21:35.935Z,98861.09
2022-10-13T21:24:05.950Z,98866.41
2022-10-13T21:26:36.485Z,98859.31
2022-10-13T21:29:08.069Z,98856.69
2022-10-13T21:31:37.616Z,98860.25
2022-10-13T21:34:07.254Z,98856.75
2022-10-13T21:36:37.966Z,98858.56
2022-10-13T21:39:06.020Z,98848.84
2022-10-13T21:41:33.506Z,98848.88
2022-10-13T21:44:00.811Z,98842.69
2022-10-13T21:46:30.395Z,98842.75
2022-10-13T21:49:02.465Z,98853.34
2022-10-13T21:51:37.485Z,98845.41
2022-10-13T21:54:10.164Z,98842.78
2022-10-13T21:56:38.236Z,98848.13
2022-10-13T21:59:07.750Z,98843.69
2022-10-13T22:01:36.149Z,98847.25
2022-10-13T22:04:02.885Z,98840.25
2022-10-13T22:06:32.187Z,98845.66
2022-10-13T22:09:04.833Z,98842.09
2022-10-13T22:11:34.006Z,98843.84
2022-10-13T22:14:00.685Z,98838.47
2022-10-13T22:16:40.037Z,98835.88
2022-10-13T22:19:09.314Z,98832.28
2022-10-13T22:21:41.990Z,98823.38
2022-10-13T22:24:12.355Z,98822.44
2022-10-13T22:26:41.242Z,98824.16
2022-10-13T22:29:10.152Z,98817.94
2022-10-13T22:31:36.797Z,98817.03
2022-10-13T22:34:04.026Z,98814.28
2022-10-13T22:36:33.684Z,98821.34
2022-10-13T22:39:02.871Z,98818.63
2022-10-13T22:41:30.744Z,98818.56
2022-10-13T22:43:58.385Z,98820.31
2022-10-13T22:46:27.591Z,98814.94
2022-10-13T22:48:54.851Z,98820.34
2022-10-13T22:51:23.504Z,98816.78
2022-10-13T22:53:50.270Z,98806.09
2022-10-13T22:56:20.031Z,98804.31
2022-10-13T22:58:59.873Z,98805.16
2022-10-13T23:01:27.028Z,98803.38
2022-10-13T23:03:55.751Z,98809.56
2022-10-13T23:06:24.685Z,98805.13
2022-10-13T23:08:51.850Z,98806.03
2022-10-13T23:11:19.242Z,98811.38
2022-10-13T23:13:46.190Z,98801.63
2022-10-13T23:16:24.341Z,98802.47
2022-10-13T23:18:51.496Z,98800.69
2022-10-13T23:21:20.201Z,98799.81
2022-10-13T23:23:46.953Z,98800.72
2022-10-13T23:26:17.890Z,98798.97
2022-10-13T23:28:44.709Z,98798.09
2022-10-13T23:31:14.779Z,98798.09
2022-10-13T23:33:41.657Z,98795.41
2022-10-13T23:36:10.882Z,98802.53
2022-10-13T23:38:37.306Z,98806.03
2022-10-13T23:41:06.899Z,98807.78
2022-10-13T23:43:33.622Z,98800.72
2022-10-13T23:46:00.305Z,98794.50
2022-10-13T23:48:27.424Z,98796.22
2022-10-13T23:50:54.387Z,98799.78
2022-10-13T23:53:21.066Z,98798.00
2022-10-13T23:55:47.557Z,98797.09
2022-10-13T23:58:14.625Z,98799.75
